createdAt,value
2018-04-08T00:02:12.926Z,5.33
2018-04-08T00:04:40.536Z,5.40
2018-04-08T00:07:08.237Z,5.10
2018-04-08T00:09:35.836Z,5.43
2018-04-08T00:12:04.073Z,5.80
2018-04-08T00:14:31.631Z,5.43
2018-04-08T00:16:59.586Z,5.70
2018-04-08T00:19:27.939Z,5.40
2018-04-08T00:21:55.576Z,5.37
2018-04-08T00:24:23.178Z,4.77
2018-04-08T00:26:51.566Z,5.20
2018-04-08T00:29:20.293Z,5.37
2018-04-08T00:31:47.876Z,5.60
2018-04-08T00:34:15.843Z,6.20
2018-04-08T00:36:43.454Z,5.40
2018-04-08T00:39:11.008Z,6.00
2018-04-08T00:41:38.638Z,5.77
2018-04-08T00:44:06.498Z,5.70
2018-04-08T00:46:34.782Z,6.67
2018-04-08T00:49:03.135Z,5.80
2018-04-08T00:51:31.471Z,5.60
2018-04-08T00:57:04.375Z,6.20
2018-04-08T00:59:32.135Z,5.23
2018-04-08T01:02:00.437Z,5.47
2018-04-08T01:04:28.148Z,5.23
2018-04-08T01:06:56.612Z,6.03
2018-04-08T01:09:24.263Z,5.40
2018-04-08T01:11:51.865Z,5.90
2018-04-08T01:14:20.502Z,5.53
2018-04-08T01:16:48.134Z,5.40
2018-04-08T01:19:16.193Z,5.23
2018-04-08T01:21:43.748Z,5.17
2018-04-08T01:24:12.097Z,5.30
2018-04-08T01:26:39.694Z,5.43
2018-04-08T01:29:08.012Z,5.43
2018-04-08T01:31:36.021Z,4.60
2018-04-08T01:34:04.384Z,5.03
2018-04-08T01:36:32.734Z,4.70
2018-04-08T01:39:00.346Z,5.27
2018-04-08T01:41:27.949Z,5.37
2018-04-08T01:43:55.545Z,5.03
2018-04-08T01:46:23.125Z,5.60
2018-04-08T01:48:51.874Z,5.30
2018-04-08T01:51:19.435Z,5.33
2018-04-08T01:53:47.343Z,5.90
2018-04-08T01:56:14.912Z,5.43
2018-04-08T01:58:42.825Z,6.23
2018-04-08T02:01:10.480Z,4.93
2018-04-08T02:03:38.062Z,5.00
2018-04-08T02:06:05.643Z,5.93
2018-04-08T02:08:33.980Z,5.20
2018-04-08T02:11:01.855Z,5.73
2018-04-08T02:13:29.456Z,5.63
2018-04-08T02:15:57.488Z,5.60
2018-04-08T02:18:25.057Z,5.50
2018-04-08T02:20:52.976Z,5.67
2018-04-08T02:23:20.540Z,5.33
2018-04-08T02:25:48.387Z,5.97
2018-04-08T02:28:16.001Z,5.47
2018-04-08T02:30:43.575Z,5.60
2018-04-08T02:33:12.414Z,5.50
2018-04-08T02:35:40.829Z,5.87
2018-04-08T02:38:08.857Z,5.33
2018-04-08T02:40:36.484Z,5.53
2018-04-08T02:43:04.081Z,5.20
2018-04-08T02:45:31.661Z,5.87
2018-04-08T02:47:59.398Z,5.13
2018-04-08T02:50:26.979Z,5.93
2018-04-08T02:52:54.582Z,5.87
2018-04-08T02:55:22.187Z,5.40
2018-04-08T02:57:49.762Z,6.10
2018-04-08T03:00:17.388Z,5.80
2018-04-08T03:02:44.968Z,5.70
2018-04-08T03:05:12.561Z,6.43
2018-04-08T03:07:40.118Z,5.87
2018-04-08T03:10:07.713Z,5.43
2018-04-08T03:12:36.057Z,6.33
2018-04-08T03:15:03.761Z,5.63
2018-04-08T03:17:31.358Z,5.83
2018-04-08T03:19:59.491Z,5.97
2018-04-08T03:22:27.062Z,5.43
2018-04-08T03:24:55.046Z,5.67
2018-04-08T03:27:22.626Z,6.17
2018-04-08T03:29:50.417Z,5.97
2018-04-08T03:32:19.310Z,5.47
2018-04-08T03:34:47.691Z,6.30
2018-04-08T03:37:16.061Z,6.37
2018-04-08T03:39:43.662Z,5.70
2018-04-08T03:42:11.253Z,6.30
2018-04-08T03:44:38.849Z,6.13
2018-04-08T03:47:07.232Z,6.47
2018-04-08T03:49:35.935Z,6.20
2018-04-08T03:52:03.547Z,6.33
2018-04-08T03:54:31.165Z,6.20
2018-04-08T03:56:58.741Z,6.97
2018-04-08T03:59:26.321Z,6.37
2018-04-08T04:01:53.929Z,5.30
2018-04-08T04:04:22.283Z,6.27
2018-04-08T04:06:50.114Z,6.60
2018-04-08T04:09:17.675Z,6.50
2018-04-08T04:11:45.884Z,6.53
2018-04-08T04:14:13.502Z,6.87
2018-04-08T04:16:41.708Z,6.60
2018-04-08T04:19:21.296Z,6.53
2018-04-08T04:22:01.098Z,6.73
2018-04-08T04:24:40.604Z,6.77
2018-04-08T04:27:08.203Z,6.47
2018-04-08T04:29:36.304Z,6.60
2018-04-08T04:32:03.884Z,7.03
2018-04-08T04:34:32.161Z,6.80
2018-04-08T04:36:59.789Z,6.70
2018-04-08T04:39:28.144Z,7.10
2018-04-08T04:41:56.067Z,5.97
2018-04-08T04:44:23.662Z,6.60
2018-04-08T04:46:51.648Z,6.87
2018-04-08T04:49:19.212Z,6.57
2018-04-08T04:51:47.108Z,6.07
2018-04-08T04:54:14.738Z,6.87
2018-04-08T04:56:43.118Z,6.37
2018-04-08T04:59:12.051Z,6.83
2018-04-08T05:01:39.650Z,6.83
2018-04-08T05:04:07.799Z,6.37
2018-04-08T05:06:35.421Z,6.30
2018-04-08T05:09:03.799Z,6.00
2018-04-08T05:11:32.586Z,7.13
2018-04-08T05:14:00.964Z,6.97
2018-04-08T05:16:29.309Z,6.50
2018-04-08T05:18:57.413Z,6.70
2018-04-08T05:21:25.853Z,6.63
2018-04-08T05:24:12.394Z,6.87
2018-04-08T05:26:39.986Z,6.90
2018-04-08T05:29:07.929Z,6.87
2018-04-08T05:31:36.360Z,7.23
2018-04-08T05:34:03.966Z,6.40
2018-04-08T05:36:51.262Z,6.00
2018-04-08T05:39:18.857Z,6.93
2018-04-08T05:41:46.455Z,7.13
2018-04-08T05:44:14.097Z,6.90
2018-04-08T05:46:41.733Z,9.30
2018-04-08T05:49:10.909Z,6.93
2018-04-08T05:51:39.259Z,7.10
2018-04-08T05:54:08.208Z,7.70
2018-04-08T05:56:35.786Z,7.33
2018-04-08T05:59:03.957Z,6.90
2018-04-08T06:01:31.623Z,6.77
2018-04-08T06:03:59.197Z,6.93
2018-04-08T06:06:26.803Z,6.27
2018-04-08T06:08:55.129Z,7.13
2018-04-08T06:11:22.984Z,6.53
2018-04-08T06:13:50.563Z,6.93
2018-04-08T06:16:19.401Z,6.87
2018-04-08T06:18:47.026Z,6.70
2018-04-08T06:21:14.629Z,6.33
2018-04-08T06:23:42.242Z,6.47
2018-04-08T06:26:09.827Z,7.27
2018-04-08T06:28:38.476Z,7.00
2018-04-08T06:31:06.092Z,7.17
2018-04-08T06:33:34.140Z,7.10
2018-04-08T06:36:01.722Z,6.87
2018-04-08T06:38:30.092Z,7.03
2018-04-08T06:40:58.741Z,6.77
2018-04-08T06:43:26.346Z,7.20
2018-04-08T06:45:55.094Z,6.87
2018-04-08T06:48:23.923Z,7.20
2018-04-08T06:50:51.548Z,7.23
2018-04-08T06:53:19.591Z,7.07
2018-04-08T06:55:47.177Z,6.73
2018-04-08T06:58:15.656Z,7.57
2018-04-08T07:00:43.267Z,7.60
2018-04-08T07:03:10.874Z,7.27
2018-04-08T07:05:38.508Z,7.40
2018-04-08T07:08:06.105Z,7.80
2018-04-08T07:10:33.743Z,8.10
2018-04-08T07:13:01.322Z,7.50
2018-04-08T07:15:29.106Z,25.90
2018-04-08T07:17:56.736Z,14.50
2018-04-08T07:20:24.929Z,9.93
2018-04-08T07:22:52.501Z,8.37
2018-04-08T07:25:21.224Z,8.77
2018-04-08T07:27:48.854Z,9.00
2018-04-08T07:30:16.456Z,7.70
2018-04-08T07:32:44.069Z,8.13
2018-04-08T07:35:11.646Z,8.17
2018-04-08T07:37:39.251Z,7.60
2018-04-08T07:40:06.821Z,7.80
2018-04-08T07:42:34.575Z,8.13
2018-04-08T07:45:02.197Z,8.63
2018-04-08T07:47:30.486Z,7.10
2018-04-08T07:49:58.145Z,8.07
2018-04-08T07:52:26.160Z,8.17
2018-04-08T07:54:53.763Z,7.70
2018-04-08T07:57:21.772Z,8.43
2018-04-08T07:59:49.440Z,8.87
2018-04-08T08:02:18.091Z,7.50
2018-04-08T08:04:46.284Z,7.63
2018-04-08T08:07:13.893Z,8.07
2018-04-08T08:09:42.241Z,7.80
2018-04-08T08:12:09.997Z,7.93
2018-04-08T08:14:37.584Z,7.77
2018-04-08T08:17:06.606Z,7.87
2018-04-08T08:19:34.227Z,7.90
2018-04-08T08:22:02.369Z,8.00
2018-04-08T08:24:29.973Z,7.70
2018-04-08T08:26:57.656Z,8.13
2018-04-08T08:29:25.272Z,9.47
2018-04-08T08:31:52.922Z,8.20
2018-04-08T08:34:20.551Z,9.20
2018-04-08T08:36:48.140Z,8.60
2018-04-08T08:39:15.932Z,8.00
2018-04-08T08:41:43.548Z,8.73
2018-04-08T08:44:11.198Z,9.17
2018-04-08T08:46:38.790Z,9.23
2018-04-08T08:49:06.444Z,8.33
2018-04-08T08:51:34.068Z,9.23
2018-04-08T08:54:01.662Z,9.03
2018-04-08T08:56:29.256Z,10.10
2018-04-08T08:58:56.947Z,8.77
2018-04-08T09:01:24.544Z,9.70
2018-04-08T09:03:52.373Z,9.23
2018-04-08T09:06:19.960Z,9.60
2018-04-08T09:08:47.584Z,10.23
2018-04-08T09:11:15.214Z,11.77
2018-04-08T09:13:43.595Z,9.93
2018-04-08T09:16:11.383Z,10.77
2018-04-08T09:18:39.498Z,9.97
2018-04-08T09:24:18.169Z,10.13
2018-04-08T09:26:45.949Z,10.83
2018-04-08T09:29:15.094Z,11.93
2018-04-08T09:31:43.325Z,11.50
2018-04-08T09:34:11.744Z,11.03
2018-04-08T09:36:39.889Z,12.00
2018-04-08T09:39:08.313Z,11.53
2018-04-08T09:41:35.986Z,10.93
2018-04-08T09:44:03.621Z,11.80
2018-04-08T09:46:31.244Z,11.70
2018-04-08T09:49:00.062Z,11.17
2018-04-08T09:51:27.654Z,12.23
2018-04-08T09:53:55.902Z,11.57
2018-04-08T09:56:24.399Z,11.03
2018-04-08T09:58:51.978Z,11.73
2018-04-08T10:01:25.969Z,12.03
2018-04-08T10:03:53.824Z,12.20
2018-04-08T10:06:21.416Z,11.37
2018-04-08T10:08:49.054Z,10.70
2018-04-08T10:11:16.706Z,10.97
2018-04-08T10:13:48.058Z,11.93
2018-04-08T10:16:16.330Z,10.87
2018-04-08T10:18:46.994Z,10.37
2018-04-08T10:21:15.425Z,12.10
2018-04-08T10:23:43.024Z,11.90
2018-04-08T10:26:11.383Z,11.93
2018-04-08T10:28:38.985Z,11.90
2018-04-08T10:31:06.776Z,11.73
2018-04-08T10:33:35.542Z,12.17
2018-04-08T10:36:03.893Z,12.37
2018-04-08T10:38:33.272Z,11.73
2018-04-08T10:41:01.338Z,11.53
2018-04-08T10:43:30.444Z,11.90
2018-04-08T10:46:02.836Z,12.40
2018-04-08T10:48:31.050Z,12.83
2018-04-08T10:50:59.432Z,13.07
2018-04-08T10:53:27.794Z,13.67
2018-04-08T10:55:56.837Z,12.73
2018-04-08T10:58:24.483Z,11.70
2018-04-08T11:00:52.568Z,13.40
2018-04-08T11:03:20.170Z,13.60
2018-04-08T11:05:47.780Z,13.80
2018-04-08T11:08:15.513Z,13.77
2018-04-08T11:10:43.876Z,13.97
2018-04-08T11:13:12.064Z,14.77
2018-04-08T11:15:40.650Z,13.13
2018-04-08T11:18:09.018Z,13.43
2018-04-08T11:20:37.873Z,13.17
2018-04-08T11:23:05.475Z,11.47
2018-04-08T11:25:33.907Z,11.50
2018-04-08T11:28:01.713Z,10.17
2018-04-08T11:30:29.406Z,9.90
2018-04-08T11:32:58.777Z,9.30
2018-04-08T11:35:27.948Z,10.77
2018-04-08T11:37:55.530Z,10.17
2018-04-08T11:40:23.260Z,8.70
2018-04-08T11:42:50.876Z,7.47
2018-04-08T11:45:19.307Z,8.83
2018-04-08T11:47:47.302Z,8.80
2018-04-08T11:50:15.694Z,9.03
2018-04-08T11:52:44.097Z,8.23
2018-04-08T11:55:12.425Z,10.17
2018-04-08T11:57:40.008Z,10.30
2018-04-08T12:00:08.786Z,10.73
2018-04-08T12:02:36.453Z,11.10
2018-04-08T12:05:05.809Z,11.53
2018-04-08T12:07:33.985Z,10.23
2018-04-08T12:10:01.640Z,10.37
2018-04-08T12:12:30.293Z,11.37
2018-04-08T12:27:58.610Z,12.20
2018-04-08T12:30:28.139Z,13.00
2018-04-08T12:32:56.613Z,11.80
2018-04-08T12:35:25.127Z,11.33
2018-04-08T12:37:52.874Z,12.13
2018-04-08T12:40:21.242Z,11.93
2018-04-08T12:42:49.568Z,11.80
2018-04-08T12:45:17.201Z,11.18
2018-04-08T12:47:45.539Z,11.73
2018-04-08T12:50:13.438Z,10.70
2018-04-08T12:52:41.884Z,10.90
2018-04-08T12:55:10.126Z,11.63
2018-04-08T12:57:37.803Z,10.17
2018-04-08T13:00:06.017Z,12.33
2018-04-08T13:02:35.216Z,11.53
2018-04-08T13:05:03.706Z,10.87
2018-04-08T13:07:32.057Z,11.30
2018-04-08T13:10:01.304Z,10.90
2018-04-08T13:12:28.986Z,11.20
2018-04-08T13:14:56.655Z,10.57
2018-04-08T13:17:24.355Z,10.83
2018-04-08T13:19:51.988Z,10.50
2018-04-08T13:22:19.659Z,10.80
2018-04-08T13:24:47.268Z,13.27
2018-04-08T13:27:15.894Z,10.83
2018-04-08T13:29:43.547Z,9.70
2018-04-08T13:32:11.762Z,11.27
2018-04-08T13:34:41.001Z,12.47
2018-04-08T13:37:10.851Z,9.17
2018-04-08T13:39:40.972Z,8.13
2018-04-08T13:42:10.941Z,9.17
2018-04-08T13:44:40.986Z,8.20
2018-04-08T13:47:11.059Z,8.50
2018-04-08T13:49:41.048Z,7.83
2018-04-08T13:52:11.148Z,8.53
2018-04-08T13:54:41.191Z,7.80
2018-04-08T13:57:11.201Z,7.47
2018-04-08T13:59:40.562Z,8.10
2018-04-08T14:02:09.896Z,7.97
2018-04-08T14:08:08.514Z,7.60
2018-04-08T14:10:37.737Z,8.57
2018-04-08T14:14:59.340Z,9.70
2018-04-08T14:17:27.434Z,9.23
2018-04-08T14:19:55.004Z,11.43
2018-04-08T14:22:22.991Z,11.65
2018-04-08T14:24:50.524Z,8.80
2018-04-08T14:27:18.605Z,9.27
2018-04-08T14:29:46.179Z,10.10
2018-04-08T14:32:13.978Z,8.95
2018-04-08T14:34:41.531Z,8.85
2018-04-08T14:37:09.084Z,9.27
2018-04-08T14:39:36.645Z,9.82
2018-04-08T14:42:04.238Z,9.73
2018-04-08T14:44:31.888Z,9.67
2018-04-08T14:46:59.423Z,8.63
2018-04-08T14:49:27.012Z,9.18
2018-04-08T14:51:55.417Z,10.30
2018-04-08T14:54:22.960Z,8.13
2018-04-08T14:56:51.023Z,7.95
2018-04-08T14:59:18.724Z,7.12
2018-04-08T15:01:46.799Z,7.47
2018-04-08T15:04:13.877Z,7.82
2018-04-08T15:06:41.418Z,7.72
2018-04-08T15:09:09.952Z,7.25
2018-04-08T15:11:37.498Z,7.47
2018-04-08T15:14:05.632Z,6.90
2018-04-08T15:16:33.151Z,6.20
2018-04-08T15:19:01.419Z,6.43
2018-04-08T15:21:29.049Z,7.10
2018-04-08T15:23:56.708Z,6.10
2018-04-08T15:26:24.360Z,5.60
2018-04-08T15:28:51.898Z,6.50
2018-04-08T15:31:19.516Z,12.87
2018-04-08T15:33:47.129Z,17.47
2018-04-08T15:36:14.741Z,14.03
2018-04-08T15:38:42.290Z,17.63
2018-04-08T15:41:09.887Z,14.03
2018-04-08T15:43:37.524Z,14.13
2018-04-08T15:46:05.812Z,7.27
2018-04-08T15:48:33.361Z,6.20
2018-04-08T15:51:01.590Z,6.90
2018-04-08T15:53:29.155Z,7.20
2018-04-08T15:55:57.524Z,7.43
2018-04-08T15:58:25.149Z,6.43
2018-04-08T16:00:52.714Z,9.37
2018-04-08T16:03:20.268Z,7.90
2018-04-08T16:05:47.799Z,8.30
2018-04-08T16:10:57.615Z,9.97
2018-04-08T16:13:25.192Z,9.03
2018-04-08T16:15:52.803Z,10.00
2018-04-08T16:18:20.369Z,10.30
2018-04-08T16:20:47.910Z,10.43
2018-04-08T16:23:15.544Z,10.03
2018-04-08T16:25:43.082Z,10.20
2018-04-08T16:28:10.640Z,10.10
2018-04-08T16:30:38.228Z,10.40
2018-04-08T16:33:05.799Z,9.30
2018-04-08T16:35:33.354Z,8.83
2018-04-08T16:38:01.016Z,8.80
2018-04-08T16:40:28.692Z,10.53
2018-04-08T16:42:56.248Z,8.83
2018-04-08T16:45:23.787Z,9.60
2018-04-08T16:47:51.345Z,8.10
2018-04-08T16:50:19.410Z,8.57
2018-04-08T16:52:47.107Z,9.03
2018-04-08T16:55:14.733Z,8.27
2018-04-08T16:57:42.988Z,7.87
2018-04-08T17:00:10.649Z,7.47
2018-04-08T17:02:38.687Z,7.90
2018-04-08T17:05:06.247Z,7.30
2018-04-08T17:07:34.298Z,7.27
2018-04-08T17:10:01.888Z,7.50
2018-04-08T17:12:29.544Z,6.90
2018-04-08T17:14:57.165Z,8.20
2018-04-08T17:17:24.740Z,7.73
2018-04-08T17:19:52.366Z,8.43
2018-04-08T17:22:19.980Z,8.40
2018-04-08T17:24:48.252Z,7.80
2018-04-08T17:27:15.788Z,7.47
2018-04-08T17:29:43.949Z,7.40
2018-04-08T17:32:12.276Z,9.10
2018-04-08T17:34:39.808Z,9.20
2018-04-08T17:37:07.432Z,9.90
2018-04-08T17:39:34.985Z,8.57
2018-04-08T17:42:02.568Z,8.53
2018-04-08T17:44:30.160Z,9.13
2018-04-08T17:46:57.721Z,9.10
2018-04-08T17:49:26.088Z,9.70
2018-04-08T17:51:55.403Z,8.63
2018-04-08T17:54:22.990Z,13.03
2018-04-08T17:56:50.975Z,43.20
2018-04-08T17:59:18.610Z,17.30
2018-04-08T18:01:46.181Z,19.07
2018-04-08T18:04:15.223Z,10.17
2018-04-08T18:06:42.907Z,12.33
2018-04-08T18:09:11.287Z,10.27
2018-04-08T18:11:38.928Z,10.87
2018-04-08T18:14:06.492Z,12.13
2018-04-08T18:16:34.120Z,11.23
2018-04-08T18:19:01.652Z,15.13
2018-04-08T18:21:29.223Z,23.57
2018-04-08T18:23:56.809Z,21.03
2018-04-08T18:26:24.414Z,21.10
2018-04-08T18:28:51.972Z,15.00
2018-04-08T18:31:19.568Z,15.73
2018-04-08T18:33:47.161Z,14.93
2018-04-08T18:36:14.756Z,12.87
2018-04-08T18:38:42.300Z,12.33
2018-04-08T18:41:10.651Z,10.37
2018-04-08T18:43:38.201Z,11.23
2018-04-08T18:46:06.329Z,10.43
2018-04-08T18:48:33.892Z,9.93
2018-04-08T18:51:02.105Z,11.90
2018-04-08T18:53:29.675Z,12.30
2018-04-08T18:55:57.289Z,12.93
2018-04-08T18:58:24.879Z,12.23
2018-04-08T19:00:52.410Z,10.67
2018-04-08T19:03:20.050Z,14.70
2018-04-08T19:05:47.603Z,9.90
2018-04-08T19:08:15.223Z,10.23
2018-04-08T19:10:42.754Z,8.37
2018-04-08T19:13:10.339Z,8.93
2018-04-08T19:15:37.870Z,8.17
2018-04-08T19:18:05.492Z,9.60
2018-04-08T19:20:33.026Z,9.30
2018-04-08T19:23:00.620Z,17.87
2018-04-08T19:25:28.180Z,8.50
2018-04-08T19:27:55.761Z,9.80
2018-04-08T19:30:23.321Z,9.33
2018-04-08T19:32:50.925Z,8.83
2018-04-08T19:35:18.487Z,8.93
2018-04-08T19:37:46.060Z,9.50
2018-04-08T19:40:13.592Z,9.50
2018-04-08T19:42:41.196Z,8.70
2018-04-08T19:45:08.750Z,10.27
2018-04-08T19:47:36.331Z,7.60
2018-04-08T19:50:03.865Z,11.60
2018-04-08T19:52:31.467Z,9.60
2018-04-08T19:54:58.990Z,9.00
2018-04-08T19:57:26.599Z,15.10
2018-04-08T19:59:54.145Z,16.20
2018-04-08T20:02:21.715Z,9.90
2018-04-08T20:04:49.258Z,8.20
2018-04-08T20:07:16.823Z,7.90
2018-04-08T20:09:44.376Z,8.23
2018-04-08T20:12:12.754Z,8.00
2018-04-08T20:14:40.291Z,8.30
2018-04-08T20:17:08.492Z,8.30
2018-04-08T20:19:36.045Z,7.20
2018-04-08T20:22:04.369Z,7.30
2018-04-08T20:24:31.977Z,8.63
2018-04-08T20:26:59.524Z,7.97
2018-04-08T20:29:27.138Z,8.00
2018-04-08T20:31:54.705Z,6.27
2018-04-08T20:34:22.305Z,6.73
2018-04-08T20:36:49.841Z,8.47
2018-04-08T20:39:17.424Z,7.00
2018-04-08T20:41:44.958Z,7.23
2018-04-08T20:44:12.543Z,12.40
2018-04-08T20:46:40.065Z,9.27
2018-04-08T20:49:07.671Z,8.47
2018-04-08T20:51:35.233Z,8.83
2018-04-08T20:54:02.802Z,8.87
2018-04-08T20:56:30.501Z,8.47
2018-04-08T20:58:58.064Z,8.20
2018-04-08T21:01:28.275Z,9.47
2018-04-08T21:03:55.797Z,8.77
2018-04-08T21:06:23.396Z,8.50
2018-04-08T21:08:50.935Z,9.37
2018-04-08T21:11:18.539Z,8.53
2018-04-08T21:13:46.108Z,8.60
2018-04-08T21:16:13.707Z,8.40
2018-04-08T21:18:41.266Z,7.90
2018-04-08T21:21:08.873Z,8.47
2018-04-08T21:23:36.429Z,8.07
2018-04-08T21:26:03.994Z,8.20
2018-04-08T21:28:31.601Z,8.53
2018-04-08T21:30:59.156Z,7.63
2018-04-08T21:33:26.716Z,8.10
2018-04-08T21:35:54.294Z,8.47
2018-04-08T21:38:21.825Z,8.43
2018-04-08T21:40:49.436Z,7.97
2018-04-08T21:43:16.995Z,8.57
2018-04-08T21:45:44.585Z,8.53
2018-04-08T21:48:12.121Z,9.47
2018-04-08T21:50:39.691Z,8.67
2018-04-08T21:53:07.229Z,9.97
2018-04-08T21:55:34.798Z,9.27
2018-04-08T21:58:02.356Z,9.60
2018-04-08T22:00:31.470Z,8.93
2018-04-08T22:03:01.567Z,8.20
2018-04-08T22:05:31.664Z,8.67
2018-04-08T22:08:01.457Z,9.93
2018-04-08T22:10:28.982Z,8.97
2018-04-08T22:13:04.112Z,8.97
2018-04-08T22:15:38.490Z,10.00
2018-04-08T22:18:09.374Z,9.60
2018-04-08T22:20:51.191Z,9.90
2018-04-08T22:23:18.776Z,9.80
2018-04-08T22:25:46.960Z,9.07
2018-04-08T22:28:17.997Z,8.43
2018-04-08T22:30:53.087Z,9.10
2018-04-08T22:33:28.048Z,8.97
2018-04-08T22:35:58.107Z,8.43
2018-04-08T22:38:33.217Z,9.80
2018-04-08T22:41:13.603Z,10.33
2018-04-08T22:43:49.351Z,8.63
2018-04-08T22:46:23.508Z,9.33
2018-04-08T22:51:53.303Z,10.63
2018-04-08T22:54:27.297Z,11.40
2018-04-08T22:57:00.474Z,11.03
2018-04-08T22:59:39.836Z,9.97
2018-04-08T23:02:16.038Z,10.63
2018-04-08T23:04:50.238Z,10.33
2018-04-08T23:07:26.604Z,10.27
2018-04-08T23:10:04.948Z,11.47
2018-04-08T23:12:41.917Z,13.57
2018-04-08T23:15:17.055Z,12.83
2018-04-08T23:17:51.912Z,13.80
2018-04-08T23:20:26.450Z,11.67
2018-04-08T23:23:13.192Z,11.00
2018-04-08T23:25:48.294Z,12.33
2018-04-08T23:28:28.539Z,12.40
2018-04-08T23:30:59.407Z,12.87
2018-04-08T23:33:32.321Z,12.03
2018-04-08T23:36:02.080Z,11.90
2018-04-08T23:38:33.083Z,12.20
2018-04-08T23:41:06.844Z,11.80
2018-04-08T23:43:39.525Z,12.40
2018-04-08T23:46:11.694Z,13.10
2018-04-08T23:48:44.090Z,11.87
2018-04-08T23:51:19.124Z,10.93
2018-04-08T23:53:51.815Z,10.90
2018-04-08T23:56:25.344Z,10.47
2018-04-08T23:58:52.938Z,9.90
